Time;durP1;ratioP1;P1;durP2;ratioP2;P2;SDS_P1;SDS_P2;PMS_P1;PMS_P2;Temp;Humidity;BMP_temperature;BMP_pressure;BME280_temperature;BME280_humidity;BME280_pressure;Samples;Min_cycle;Max_cycle;Signal;HPM_P1;HPM_P2
2021/06/25 00:01:39;;;;;;;4.47;3.70;;;17.50;99.90;;;;;;5029944;28;20455;-67
2021/06/25 00:04:06;;;;;;;4.53;3.80;;;17.50;99.90;;;;;;5030187;28;20448;-68
2021/06/25 00:06:33;;;;;;;4.87;3.40;;;17.60;99.90;;;;;;5030009;28;20453;-67
2021/06/25 00:09:00;;;;;;;4.00;3.60;;;17.60;99.90;;;;;;5033180;28;20914;-67
2021/06/25 00:11:28;;;;;;;4.73;3.70;;;17.60;99.90;;;;;;5033824;28;20572;-67
2021/06/25 00:13:55;;;;;;;4.67;3.40;;;17.60;99.90;;;;;;5034085;28;20542;-67
2021/06/25 00:16:22;;;;;;;4.60;3.30;;;17.60;99.90;;;;;;5033471;28;21057;-70
2021/06/25 00:18:49;;;;;;;3.60;3.00;;;17.50;99.90;;;;;;5033746;28;20576;-67
2021/06/25 00:21:16;;;;;;;4.10;3.37;;;17.50;99.90;;;;;;5033321;28;20532;-67
2021/06/25 00:23:43;;;;;;;3.97;2.77;;;17.50;99.90;;;;;;5034320;28;20455;-68
2021/06/25 00:26:10;;;;;;;4.47;3.00;;;17.60;99.90;;;;;;5034977;28;20823;-67
2021/06/25 00:28:38;;;;;;;4.10;3.03;;;17.60;99.90;;;;;;5035408;28;20515;-68
2021/06/25 00:31:05;;;;;;;3.77;3.30;;;17.60;99.90;;;;;;5032937;28;21094;-68
2021/06/25 00:33:32;;;;;;;4.00;2.97;;;17.70;99.90;;;;;;5033810;28;20449;-67
2021/06/25 00:35:59;;;;;;;4.90;3.33;;;17.70;99.90;;;;;;5033091;28;20535;-68
2021/06/25 00:38:25;;;;;;;4.30;3.13;;;17.70;99.90;;;;;;5033844;28;20551;-69
2021/06/25 00:40:53;;;;;;;4.43;3.60;;;17.70;99.90;;;;;;5032936;28;20441;-68
2021/06/25 00:43:20;;;;;;;3.20;2.53;;;17.70;99.90;;;;;;5033842;28;20815;-68
2021/06/25 00:45:49;;;;;;;4.53;3.03;;;17.60;99.90;;;;;;5034106;28;20449;-67
2021/06/25 00:48:15;;;;;;;3.60;3.07;;;17.60;99.90;;;;;;5033449;28;20481;-67
2021/06/25 00:50:42;;;;;;;3.83;3.00;;;17.60;99.90;;;;;;5032849;28;20491;-67
2021/06/25 00:53:09;;;;;;;5.03;3.10;;;17.60;99.90;;;;;;5033889;28;20539;-67
2021/06/25 00:55:42;;;;;;;5.37;3.10;;;17.50;99.90;;;;;;5033711;28;20448;-68
2021/06/25 00:58:10;;;;;;;3.53;2.90;;;17.50;99.90;;;;;;5033077;28;20937;-67
2021/06/25 01:00:37;;;;;;;3.50;2.50;;;17.50;99.90;;;;;;5032295;28;20437;-67
2021/06/25 01:03:06;;;;;;;3.40;2.73;;;17.50;99.90;;;;;;5033087;28;20857;-69
2021/06/25 01:05:33;;;;;;;3.70;3.10;;;17.50;99.90;;;;;;5033192;28;20448;-69
2021/06/25 01:08:00;;;;;;;4.43;2.73;;;17.50;99.90;;;;;;5032594;28;20548;-68
2021/06/25 01:10:28;;;;;;;4.30;2.97;;;17.40;99.90;;;;;;5032143;28;20923;-68
2021/06/25 01:12:55;;;;;;;4.27;2.80;;;17.40;99.90;;;;;;5032896;28;20540;-70
2021/06/25 01:15:22;;;;;;;3.30;2.47;;;17.40;99.90;;;;;;5032799;28;20468;-67
2021/06/25 01:17:49;;;;;;;4.20;2.77;;;17.40;99.90;;;;;;5032190;28;20707;-67
2021/06/25 01:20:19;;;;;;;4.10;3.13;;;17.30;99.90;;;;;;5031853;28;20935;-67
2021/06/25 01:22:47;;;;;;;4.40;3.00;;;17.30;99.90;;;;;;5032813;28;20950;-67
2021/06/25 01:25:19;;;;;;;4.87;3.00;;;17.20;99.90;;;;;;5032840;28;20447;-67
2021/06/25 01:27:49;;;;;;;3.83;3.33;;;17.20;99.90;;;;;;5032621;28;20480;-68
2021/06/25 01:30:18;;;;;;;5.20;3.20;;;17.10;99.90;;;;;;5031587;28;20508;-68
2021/06/25 01:32:46;;;;;;;4.50;3.60;;;17.00;99.90;;;;;;5032845;28;20467;-68
2021/06/25 01:35:13;;;;;;;4.00;3.40;;;17.10;99.90;;;;;;5032790;28;20447;-67
2021/06/25 01:37:41;;;;;;;5.87;2.90;;;17.10;99.90;;;;;;5032228;28;20478;-67
2021/06/25 01:40:13;;;;;;;6.50;2.90;;;17.10;99.90;;;;;;5031498;28;20541;-68
2021/06/25 01:42:41;;;;;;;4.37;2.83;;;17.10;99.90;;;;;;5032147;28;20481;-67
2021/06/25 01:45:11;;;;;;;4.33;3.13;;;17.10;99.90;;;;;;5032334;28;21031;-67
2021/06/25 01:47:39;;;;;;;3.67;2.70;;;17.10;99.90;;;;;;5031902;28;21292;-68
2021/06/25 01:50:09;;;;;;;4.80;2.50;;;17.10;99.90;;;;;;5031569;28;21021;-68
2021/06/25 01:52:36;;;;;;;5.30;2.63;;;17.10;99.90;;;;;;5032501;28;20455;-67
2021/06/25 01:55:04;;;;;;;4.23;2.93;;;17.10;99.90;;;;;;5032002;28;20853;-68
2021/06/25 01:57:32;;;;;;;3.90;3.00;;;17.10;99.90;;;;;;5031900;28;20834;-68
2021/06/25 02:00:00;;;;;;;4.13;2.93;;;17.10;99.90;;;;;;5031277;28;20494;-68
2021/06/25 02:02:27;;;;;;;3.83;3.00;;;17.10;99.90;;;;;;5032223;28;20447;-68
2021/06/25 02:04:54;;;;;;;5.07;3.23;;;17.10;99.90;;;;;;5032057;28;20456;-68
2021/06/25 02:07:21;;;;;;;4.20;3.27;;;17.00;99.90;;;;;;5031268;28;20528;-67
2021/06/25 02:09:48;;;;;;;4.90;3.90;;;17.10;99.90;;;;;;5030984;28;20535;-67
2021/06/25 02:12:14;;;;;;;3.93;3.37;;;17.00;99.90;;;;;;5033303;28;21121;-68
2021/06/25 02:14:43;;;;;;;5.83;3.80;;;17.00;99.90;;;;;;5032549;28;20532;-67
2021/06/25 02:17:10;;;;;;;4.37;3.30;;;17.00;99.90;;;;;;5031469;28;20448;-69
2021/06/25 02:19:37;;;;;;;4.10;3.63;;;17.00;99.90;;;;;;5031010;28;20540;-68
2021/06/25 02:22:04;;;;;;;5.63;3.50;;;17.00;99.90;;;;;;5031721;28;20441;-68
2021/06/25 02:24:31;;;;;;;5.20;4.20;;;17.00;99.90;;;;;;5031757;28;20459;-68
2021/06/25 02:26:58;;;;;;;4.33;3.93;;;17.00;99.90;;;;;;5031330;28;20506;-67
2021/06/25 02:29:25;;;;;;;5.03;3.80;;;17.00;99.90;;;;;;5030437;28;20899;-68
2021/06/25 02:31:54;;;;;;;5.63;3.83;;;17.00;99.90;;;;;;5031612;28;20480;-68
2021/06/25 02:34:20;;;;;;;4.50;4.03;;;17.00;99.90;;;;;;5031606;28;20539;-70
2021/06/25 02:36:47;;;;;;;5.40;4.00;;;17.00;99.90;;;;;;5031117;28;20532;-68
2021/06/25 02:39:14;;;;;;;4.63;3.63;;;17.00;99.90;;;;;;5031076;28;21431;-68
2021/06/25 02:41:41;;;;;;;4.70;4.27;;;17.00;99.90;;;;;;5031640;28;20445;-67
2021/06/25 02:44:08;;;;;;;5.20;4.50;;;17.00;99.90;;;;;;5031723;28;20607;-66
2021/06/25 02:46:35;;;;;;;4.97;4.03;;;17.00;99.90;;;;;;5031244;28;20493;-67
2021/06/25 02:49:03;;;;;;;4.20;3.80;;;17.00;99.90;;;;;;5031065;28;20556;-67
2021/06/25 02:51:31;;;;;;;5.50;4.43;;;17.00;99.90;;;;;;5031371;28;20564;-67
2021/06/25 02:53:58;;;;;;;4.90;4.40;;;17.00;99.90;;;;;;5031276;28;20440;-67
2021/06/25 02:56:25;;;;;;;4.87;4.30;;;17.00;99.90;;;;;;5030941;28;20551;-69
2021/06/25 02:58:52;;;;;;;4.50;3.97;;;17.00;99.90;;;;;;5031144;28;20519;-67
2021/06/25 03:01:19;;;;;;;5.73;4.83;;;17.00;99.90;;;;;;5031339;28;20447;-67
2021/06/25 03:03:45;;;;;;;5.27;3.60;;;17.00;99.90;;;;;;5031947;28;20516;-68
2021/06/25 03:06:14;;;;;;;5.23;4.70;;;17.00;99.90;;;;;;5031195;28;20473;-69
2021/06/25 03:08:41;;;;;;;5.23;4.20;;;17.00;99.90;;;;;;5030856;28;20504;-67
2021/06/25 03:11:08;;;;;;;4.97;3.90;;;16.90;99.90;;;;;;5030071;28;21000;-69
2021/06/25 03:13:35;;;;;;;6.40;4.53;;;16.90;99.90;;;;;;5030467;28;20449;-67
2021/06/25 03:16:02;;;;;;;5.10;4.17;;;16.90;99.90;;;;;;5030518;28;20444;-68
2021/06/25 03:18:29;;;;;;;5.20;4.23;;;16.90;99.90;;;;;;5030600;28;20547;-68
2021/06/25 03:20:56;;;;;;;8.63;4.60;;;16.90;99.90;;;;;;5030056;28;20731;-68
2021/06/25 03:23:24;;;;;;;4.23;3.63;;;16.80;99.90;;;;;;5030917;28;21000;-68
2021/06/25 03:25:51;;;;;;;4.30;3.90;;;16.80;99.90;;;;;;5031303;28;20441;-69
2021/06/25 03:28:18;;;;;;;4.90;4.30;;;16.80;99.90;;;;;;5030534;28;20469;-69
2021/06/25 03:30:46;;;;;;;4.70;4.03;;;16.70;99.90;;;;;;5029769;28;20572;-66
2021/06/25 03:33:13;;;;;;;5.10;4.20;;;16.70;99.90;;;;;;5030553;28;20475;-67
2021/06/25 03:35:40;;;;;;;4.10;3.67;;;16.70;99.90;;;;;;5030223;28;21049;-67
2021/06/25 03:38:08;;;;;;;4.40;3.80;;;16.70;99.90;;;;;;5030048;28;20468;-67
2021/06/25 03:40:37;;;;;;;6.37;3.20;;;16.60;99.90;;;;;;5029801;28;20544;-68
2021/06/25 03:43:05;;;;;;;3.80;3.03;;;16.70;99.90;;;;;;5030249;28;20519;-68
2021/06/25 03:45:33;;;;;;;6.60;4.30;;;16.70;99.90;;;;;;5030218;28;20536;-68
2021/06/25 03:47:59;;;;;;;4.43;3.63;;;16.70;99.90;;;;;;5030110;28;21100;-67
2021/06/25 03:50:27;;;;;;;4.60;3.57;;;16.80;99.90;;;;;;5029527;28;20551;-68
2021/06/25 03:52:54;;;;;;;4.03;3.40;;;16.80;99.90;;;;;;5030529;28;20531;-67
2021/06/25 03:55:21;;;;;;;4.83;4.23;;;16.80;99.90;;;;;;5030155;28;20445;-68
2021/06/25 03:57:49;;;;;;;4.03;3.50;;;16.80;99.90;;;;;;5029675;28;20469;-67
2021/06/25 04:00:18;;;;;;;4.30;3.20;;;16.80;99.90;;;;;;5028738;28;20457;-69
2021/06/25 04:02:46;;;;;;;5.07;3.23;;;16.80;99.90;;;;;;5029764;28;20540;-68
2021/06/25 04:05:15;;;;;;;6.13;3.63;;;16.80;99.90;;;;;;5029933;28;20451;-68
2021/06/25 04:07:42;;;;;;;5.87;3.10;;;16.80;99.90;;;;;;5029337;28;20465;-68
2021/06/25 04:10:11;;;;;;;4.50;3.50;;;16.80;99.90;;;;;;5029234;28;20813;-69
2021/06/25 04:12:39;;;;;;;4.23;3.20;;;16.80;99.90;;;;;;5029595;28;20480;-70
2021/06/25 04:15:09;;;;;;;3.93;3.10;;;16.80;99.90;;;;;;5029815;28;20963;-70
2021/06/25 04:17:36;;;;;;;3.83;3.27;;;16.80;99.90;;;;;;5029725;28;20555;-70
2021/06/25 04:20:03;;;;;;;3.40;2.90;;;16.80;99.90;;;;;;5029060;28;21034;-70
2021/06/25 04:22:30;;;;;;;4.17;3.60;;;16.80;99.90;;;;;;5029338;28;20648;-70
2021/06/25 04:24:57;;;;;;;3.73;2.73;;;16.80;99.90;;;;;;5030096;28;20456;-70
2021/06/25 04:27:24;;;;;;;4.43;2.83;;;16.80;99.90;;;;;;5029515;28;20904;-70
2021/06/25 04:29:50;;;;;;;4.20;3.07;;;16.80;99.90;;;;;;5028903;28;21033;-71
2021/06/25 04:32:20;;;;;;;3.93;2.70;;;16.80;99.90;;;;;;5029664;28;20575;-70
2021/06/25 04:34:47;;;;;;;3.87;2.77;;;16.80;99.90;;;;;;5029874;28;20460;-70
2021/06/25 04:37:14;;;;;;;3.03;2.30;;;16.80;99.90;;;;;;5029764;28;20476;-72
2021/06/25 04:39:41;;;;;;;7.10;3.10;;;16.70;99.90;;;;;;5030053;28;20543;-70
2021/06/25 04:42:10;;;;;;;3.50;2.60;;;16.70;99.90;;;;;;5032583;28;20761;-71
2021/06/25 04:44:38;;;;;;;3.70;2.67;;;16.60;99.90;;;;;;5031655;28;20532;-69
2021/06/25 04:47:05;;;;;;;3.47;2.87;;;16.50;99.90;;;;;;5030849;28;20855;-68
2021/06/25 04:49:35;;;;;;;3.80;3.20;;;16.50;99.90;;;;;;5029398;28;20449;-69
2021/06/25 04:52:02;;;;;;;7.20;2.90;;;16.50;99.90;;;;;;5029294;28;20616;-69
2021/06/25 04:54:29;;;;;;;3.90;2.90;;;16.50;99.90;;;;;;5032936;28;20528;-68
2021/06/25 04:56:56;;;;;;;3.50;2.67;;;16.50;99.90;;;;;;5032569;28;20448;-68
2021/06/25 04:59:23;;;;;;;3.30;2.33;;;16.60;99.90;;;;;;5031950;28;20464;-67
2021/06/25 05:01:50;;;;;;;4.87;2.63;;;16.60;99.90;;;;;;5041367;28;20530;-68
2021/06/25 05:04:17;;;;;;;5.13;2.57;;;16.60;99.90;;;;;;5049554;28;20540;-68
2021/06/25 05:06:46;;;;;;;3.40;2.53;;;16.60;99.90;;;;;;5051089;28;20502;-68
2021/06/25 05:09:13;;;;;;;3.60;3.00;;;16.60;99.90;;;;;;5050265;28;20494;-66
2021/06/25 05:11:40;;;;;;;3.80;3.00;;;16.70;99.90;;;;;;5051483;28;20574;-67
2021/06/25 05:14:07;;;;;;;4.80;2.90;;;16.70;99.90;;;;;;5051243;28;20475;-67
2021/06/25 05:16:34;;;;;;;3.60;2.33;;;16.60;99.90;;;;;;5052378;28;20452;-67
2021/06/25 05:19:01;;;;;;;4.00;2.43;;;16.60;99.90;;;;;;5050672;28;20468;-68
2021/06/25 05:21:28;;;;;;;3.77;2.60;;;16.50;99.90;;;;;;5052387;28;20845;-67
2021/06/25 05:23:56;;;;;;;3.60;2.70;;;16.40;99.90;;;;;;5052862;28;20525;-67
2021/06/25 05:26:23;;;;;;;3.67;2.73;;;16.30;99.90;;;;;;5051807;28;20450;-67
2021/06/25 05:28:50;;;;;;;5.30;3.50;;;16.20;99.90;;;;;;5052258;28;21103;-67
2021/06/25 05:31:17;;;;;;;4.63;3.93;;;16.00;99.90;;;;;;5051608;28;20499;-66
2021/06/25 05:33:44;;;;;;;4.67;4.20;;;16.00;99.90;;;;;;5052684;28;20811;-67
2021/06/25 05:36:11;;;;;;;4.90;4.10;;;15.90;99.90;;;;;;5052035;28;20534;-67
2021/06/25 05:38:38;;;;;;;8.40;5.20;;;15.90;99.90;;;;;;5052267;28;20500;-66
2021/06/25 05:41:06;;;;;;;5.70;5.10;;;15.90;99.90;;;;;;5051538;28;20880;-66
2021/06/25 05:43:33;;;;;;;6.47;5.20;;;15.90;99.90;;;;;;5052533;28;20450;-67
2021/06/25 05:46:00;;;;;;;9.03;5.63;;;15.80;99.90;;;;;;5051938;28;20555;-66
2021/06/25 05:48:27;;;;;;;6.90;6.20;;;15.80;99.90;;;;;;5051533;28;20468;-67
2021/06/25 05:50:54;;;;;;;6.83;5.80;;;15.80;99.90;;;;;;5051097;28;20872;-67
2021/06/25 05:53:21;;;;;;;7.07;6.37;;;15.80;99.90;;;;;;5052356;28;20583;-67
2021/06/25 05:55:48;;;;;;;8.40;7.37;;;15.90;99.90;;;;;;5052272;28;20440;-67
2021/06/25 05:58:16;;;;;;;7.53;5.77;;;15.90;99.90;;;;;;5051440;28;20582;-67
2021/06/25 06:00:43;;;;;;;6.80;5.90;;;15.90;99.90;;;;;;5051388;28;20551;-66
2021/06/25 06:03:10;;;;;;;7.63;6.57;;;16.00;99.90;;;;;;5052553;28;20539;-67
2021/06/25 06:05:37;;;;;;;6.07;4.70;;;16.00;99.90;;;;;;5051784;28;20594;-66
2021/06/25 06:08:04;;;;;;;6.30;5.10;;;16.10;99.90;;;;;;5052298;28;20555;-68
2021/06/25 06:10:31;;;;;;;6.47;5.00;;;16.10;99.90;;;;;;5051515;28;20535;-67
2021/06/25 06:12:58;;;;;;;5.43;4.70;;;16.30;99.90;;;;;;5052250;28;20556;-68
2021/06/25 06:15:27;;;;;;;5.33;4.20;;;16.50;99.90;;;;;;5052312;28;20440;-68
2021/06/25 06:17:56;;;;;;;5.07;4.40;;;16.70;99.90;;;;;;5051617;28;20985;-67
2021/06/25 06:20:24;;;;;;;4.40;3.70;;;16.80;99.90;;;;;;5051269;28;20455;-68
2021/06/25 06:31:19;;;;;;;6.33;4.27;;;16.90;99.90;;;;;;5051033;28;20497;-66
2021/06/25 06:33:48;;;;;;;4.00;3.60;;;17.00;99.90;;;;;;5051757;28;20442;-66
2021/06/25 06:36:22;;;;;;;5.40;3.60;;;17.10;99.90;;;;;;5051031;28;20539;-68
2021/06/25 06:38:49;;;;;;;4.23;3.13;;;17.10;99.90;;;;;;5051018;28;20464;-65
2021/06/25 06:41:16;;;;;;;4.40;3.63;;;17.20;99.90;;;;;;5050491;28;20448;-66
2021/06/25 06:43:43;;;;;;;5.47;3.97;;;17.30;99.90;;;;;;5050905;28;20432;-67
2021/06/25 06:46:12;;;;;;;4.97;3.97;;;17.50;99.90;;;;;;5050449;28;20452;-67
2021/06/25 06:48:40;;;;;;;4.77;4.27;;;17.60;99.90;;;;;;5050570;28;20491;-67
2021/06/25 06:51:07;;;;;;;5.60;3.60;;;17.60;99.90;;;;;;5049614;28;20440;-67
2021/06/25 06:53:35;;;;;;;3.90;3.20;;;17.70;99.90;;;;;;5050714;28;20566;-68
2021/06/25 06:56:02;;;;;;;6.67;3.60;;;17.70;99.90;;;;;;5050328;28;20444;-68
2021/06/25 06:58:29;;;;;;;4.27;3.87;;;17.70;99.90;;;;;;5050800;28;20496;-67
2021/06/25 07:00:56;;;;;;;4.03;3.60;;;17.60;99.90;;;;;;5049753;28;20450;-67
2021/06/25 07:03:25;;;;;;;4.20;3.47;;;17.60;99.90;;;;;;5050196;28;20451;-67
2021/06/25 07:05:52;;;;;;;7.70;4.30;;;17.50;99.90;;;;;;5050358;28;20543;-68
2021/06/25 07:08:19;;;;;;;3.93;3.30;;;17.60;99.90;;;;;;5050043;28;20506;-68
2021/06/25 07:10:46;;;;;;;4.60;3.30;;;17.60;99.90;;;;;;5049988;28;21138;-66
2021/06/25 07:13:13;;;;;;;4.27;3.63;;;17.50;99.90;;;;;;5050918;28;20515;-69
2021/06/25 07:15:40;;;;;;;3.90;3.50;;;17.40;99.90;;;;;;5050951;28;20448;-69
2021/06/25 07:18:08;;;;;;;4.33;3.80;;;17.30;99.90;;;;;;5050026;28;20833;-67
2021/06/25 07:20:36;;;;;;;5.13;3.73;;;17.20;99.90;;;;;;5049465;28;21319;-68
2021/06/25 07:23:04;;;;;;;4.57;3.93;;;17.10;99.90;;;;;;5050515;28;20483;-68
2021/06/25 07:25:32;;;;;;;4.80;4.17;;;17.00;99.90;;;;;;5050352;28;20548;-67
2021/06/25 07:27:59;;;;;;;6.40;4.43;;;17.00;99.90;;;;;;5049926;28;20551;-67
2021/06/25 07:30:26;;;;;;;5.17;4.67;;;17.00;99.90;;;;;;5049322;28;20534;-67
2021/06/25 07:32:52;;;;;;;7.23;5.20;;;17.00;99.90;;;;;;5050321;28;20506;-67
2021/06/25 07:35:20;;;;;;;7.50;6.70;;;17.10;99.90;;;;;;5050341;28;20447;-65
2021/06/25 07:37:49;;;;;;;6.73;5.93;;;17.20;99.90;;;;;;5049787;28;20555;-67
2021/06/25 07:40:16;;;;;;;7.93;7.07;;;17.40;99.90;;;;;;5049065;28;20553;-67
2021/06/25 07:42:45;;;;;;;8.67;7.77;;;17.50;99.90;;;;;;5050297;28;20498;-67
2021/06/25 07:45:12;;;;;;;8.63;7.83;;;17.70;99.90;;;;;;5049776;28;20458;-68
2021/06/25 07:47:41;;;;;;;9.77;8.37;;;17.70;99.90;;;;;;5049707;28;20548;-66
2021/06/25 07:50:09;;;;;;;10.27;9.27;;;17.70;99.90;;;;;;5049237;28;20471;-66
2021/06/25 07:52:37;;;;;;;9.90;8.90;;;17.60;99.90;;;;;;5049747;28;20538;-66
2021/06/25 07:55:06;;;;;;;11.10;9.70;;;17.50;99.90;;;;;;5050086;28;20454;-67
2021/06/25 07:57:34;;;;;;;12.17;9.90;;;17.50;99.90;;;;;;5049232;28;20464;-67
2021/06/25 08:00:01;;;;;;;10.40;9.40;;;17.60;99.90;;;;;;5048911;28;20451;-68
2021/06/25 08:02:28;;;;;;;11.02;10.00;;;17.60;99.90;;;;;;5048981;28;20442;-67
2021/06/25 08:04:54;;;;;;;8.63;7.73;;;17.70;99.90;;;;;;5049977;28;20198;-66
2021/06/25 08:07:21;;;;;;;9.50;8.50;;;17.70;99.90;;;;;;5049502;28;20515;-69
2021/06/25 08:09:48;;;;;;;9.20;8.33;;;17.80;99.90;;;;;;5049122;28;20447;-68
2021/06/25 08:12:17;;;;;;;9.10;7.60;;;17.90;99.90;;;;;;5049844;28;20582;-67
2021/06/25 08:14:43;;;;;;;8.37;7.37;;;17.80;99.90;;;;;;5049448;28;20527;-68
2021/06/25 08:17:10;;;;;;;8.50;7.70;;;17.70;99.90;;;;;;5049317;28;20458;-68
2021/06/25 08:19:37;;;;;;;8.00;7.20;;;17.60;99.90;;;;;;5048938;28;20451;-67
2021/06/25 08:22:05;;;;;;;6.53;5.33;;;17.60;99.90;;;;;;5050047;28;20847;-67
2021/06/25 08:24:34;;;;;;;4.90;4.00;;;17.40;99.90;;;;;;5049558;28;20447;-69
2021/06/25 08:27:01;;;;;;;5.97;3.80;;;17.30;99.90;;;;;;5049929;28;20497;-67
2021/06/25 08:29:29;;;;;;;5.70;4.13;;;17.30;99.90;;;;;;5053674;28;20535;-69
2021/06/25 08:31:56;;;;;;;5.70;4.50;;;17.40;99.90;;;;;;5053654;28;20532;-66
2021/06/25 08:34:24;;;;;;;3.97;3.30;;;17.40;99.90;;;;;;5053904;28;20457;-65
2021/06/25 08:36:51;;;;;;;4.77;3.77;;;17.50;99.90;;;;;;5053293;28;20452;-66
2021/06/25 08:39:18;;;;;;;4.50;3.77;;;17.70;99.90;;;;;;5052127;28;20555;-67
2021/06/25 08:41:45;;;;;;;4.03;2.63;;;17.90;99.90;;;;;;5053412;28;20458;-66
2021/06/25 08:44:12;;;;;;;4.43;2.50;;;18.00;99.90;;;;;;5052988;28;20436;-66
2021/06/25 08:46:46;;;;;;;3.57;2.67;;;18.10;99.90;;;;;;5052862;28;20543;-67
2021/06/25 08:49:14;;;;;;;3.63;2.63;;;18.10;99.90;;;;;;5052347;28;20459;-66
2021/06/25 08:51:42;;;;;;;3.30;2.17;;;18.30;99.90;;;;;;5053139;28;20440;-67
2021/06/25 08:54:10;;;;;;;4.23;2.53;;;18.20;99.90;;;;;;5052889;28;20940;-66
2021/06/25 08:56:37;;;;;;;3.00;2.13;;;17.80;99.90;;;;;;5052392;28;20444;-67
2021/06/25 08:59:04;;;;;;;3.60;2.40;;;17.50;99.90;;;;;;5052434;28;20575;-69
2021/06/25 09:01:32;;;;;;;3.90;2.70;;;17.20;99.90;;;;;;5053076;28;20855;-69
2021/06/25 09:04:01;;;;;;;3.70;2.63;;;17.10;99.90;;;;;;5053193;28;20972;-64
2021/06/25 09:06:28;;;;;;;4.53;2.60;;;17.00;99.90;;;;;;5055664;28;20451;-65
2021/06/25 09:09:10;;;;;;;3.57;2.53;;;16.90;99.90;;;;;;5053915;28;20553;-66
2021/06/25 09:11:40;;;;;;;4.50;2.50;;;16.90;99.90;;;;;;5052524;28;20455;-65
2021/06/25 09:14:07;;;;;;;4.50;2.40;;;16.90;99.90;;;;;;5052651;28;20948;-65
2021/06/25 09:16:36;;;;;;;3.23;2.00;;;16.90;99.90;;;;;;5052151;28;20531;-67
2021/06/25 09:19:07;;;;;;;4.00;2.70;;;16.80;99.90;;;;;;5051735;28;20472;-66
2021/06/25 09:21:36;;;;;;;4.03;3.00;;;16.70;99.90;;;;;;5052079;28;20440;-66
2021/06/25 09:24:17;;;;;;;5.70;4.40;;;16.60;99.90;;;;;;5052926;28;20440;-67
2021/06/25 09:26:44;;;;;;;5.77;4.80;;;16.60;99.90;;;;;;5052439;28;20554;-65
2021/06/25 09:29:15;;;;;;;6.70;5.00;;;16.60;99.90;;;;;;5051931;28;20555;-66
2021/06/25 09:31:42;;;;;;;5.77;4.90;;;16.50;99.90;;;;;;5052529;28;20462;-67
2021/06/25 09:34:11;;;;;;;7.83;6.07;;;16.50;99.90;;;;;;5052419;28;20479;-66
2021/06/25 09:36:39;;;;;;;6.60;5.40;;;16.50;99.90;;;;;;5052245;28;20456;-68
2021/06/25 09:39:09;;;;;;;8.00;6.60;;;16.50;99.90;;;;;;5051552;28;20464;-65
2021/06/25 09:41:37;;;;;;;8.73;6.73;;;16.50;99.90;;;;;;5052287;28;20543;-68
2021/06/25 09:44:06;;;;;;;10.80;7.17;;;16.50;99.90;;;;;;5052631;28;20444;-67
2021/06/25 09:46:34;;;;;;;8.90;7.50;;;16.50;99.90;;;;;;5052168;28;20825;-66
2021/06/25 09:49:03;;;;;;;9.40;8.40;;;16.60;99.90;;;;;;5051787;28;20518;-66
2021/06/25 09:51:32;;;;;;;9.07;7.90;;;16.60;99.90;;;;;;5052110;28;20448;-66
2021/06/25 09:54:06;;;;;;;10.23;8.73;;;16.70;99.90;;;;;;5052827;28;20533;-65
2021/06/25 09:56:37;;;;;;;10.80;8.60;;;16.70;99.90;;;;;;5052637;28;20445;-66
2021/06/25 09:59:25;;;;;;;13.10;10.30;;;16.60;99.90;;;;;;5051843;28;20486;-67
2021/06/25 10:01:51;;;;;;;12.37;9.40;;;16.60;99.90;;;;;;5052717;28;20483;-69
2021/06/25 10:04:42;;;;;;;12.27;9.63;;;16.60;99.90;;;;;;5052718;28;20468;-68
2021/06/25 10:07:17;;;;;;;12.93;10.00;;;16.60;99.90;;;;;;5052255;28;20881;-68
2021/06/25 10:09:46;;;;;;;12.40;10.80;;;16.60;99.90;;;;;;5051742;28;20482;-66
2021/06/25 10:12:14;;;;;;;12.33;10.73;;;16.70;99.90;;;;;;5051801;28;20502;-67
2021/06/25 10:14:43;;;;;;;14.70;10.97;;;16.70;99.90;;;;;;5051538;28;20483;-66
2021/06/25 10:17:12;;;;;;;13.33;11.47;;;16.80;99.90;;;;;;5051269;28;20514;-68
2021/06/25 10:19:41;;;;;;;16.63;12.90;;;16.90;99.90;;;;;;5050881;28;20456;-68
2021/06/25 10:22:09;;;;;;;14.67;12.83;;;17.10;99.90;;;;;;5051485;28;21248;-66
2021/06/25 10:24:45;;;;;;;17.13;14.27;;;17.30;99.90;;;;;;5051773;28;20440;-66
2021/06/25 10:27:13;;;;;;;16.70;14.90;;;17.30;99.90;;;;;;5051386;28;20534;-68
2021/06/25 10:29:40;;;;;;;17.40;14.90;;;17.30;99.90;;;;;;5050390;28;20544;-68
2021/06/25 10:32:09;;;;;;;19.27;17.27;;;17.30;99.90;;;;;;5051565;28;20562;-67
2021/06/25 10:34:36;;;;;;;17.87;15.53;;;17.40;99.90;;;;;;5051096;28;20582;-66
2021/06/25 10:37:05;;;;;;;16.87;15.03;;;17.40;99.90;;;;;;5050678;28;20512;-67
2021/06/25 10:39:34;;;;;;;20.67;16.37;;;17.30;99.90;;;;;;5050213;28;20454;-68
2021/06/25 10:42:04;;;;;;;16.63;14.67;;;17.30;99.90;;;;;;5050728;28;20514;-68
2021/06/25 10:44:42;;;;;;;18.93;15.87;;;17.20;99.90;;;;;;5050623;28;20535;-69
2021/06/25 10:47:28;;;;;;;16.00;13.90;;;17.20;99.90;;;;;;5050401;28;20475;-66
2021/06/25 10:50:24;;;;;;;14.77;13.13;;;17.40;99.90;;;;;;5049666;28;20490;-67
2021/06/25 10:53:25;;;;;;;15.47;13.50;;;17.40;99.90;;;;;;5050388;28;20431;-68
2021/06/25 10:56:06;;;;;;;16.77;15.07;;;17.60;99.90;;;;;;5051139;28;20541;-66
2021/06/25 10:58:36;;;;;;;16.63;14.87;;;17.70;99.90;;;;;;5050997;28;20482;-66
2021/06/25 11:01:05;;;;;;;16.00;14.27;;;17.80;99.90;;;;;;5049310;28;20452;-66
2021/06/25 11:03:41;;;;;;;17.53;14.90;;;18.00;99.90;;;;;;5049790;28;20466;-66
2021/06/25 11:06:10;;;;;;;18.97;15.27;;;18.10;99.90;;;;;;5049791;28;20438;-67
2021/06/25 11:09:02;;;;;;;17.90;15.40;;;18.30;99.90;;;;;;5049863;28;20456;-68
2021/06/25 11:11:30;;;;;;;15.67;13.97;;;18.60;99.90;;;;;;5049577;28;20436;-67
2021/06/25 11:14:01;;;;;;;17.70;15.80;;;18.80;99.90;;;;;;5050423;28;20883;-67
2021/06/25 11:16:28;;;;;;;17.47;15.23;;;18.90;99.90;;;;;;5049776;28;20824;-68
2021/06/25 11:18:55;;;;;;;18.53;15.30;;;18.90;99.90;;;;;;5045860;28;20460;-66
2021/06/25 11:21:42;;;;;;;18.97;15.87;;;18.80;99.90;;;;;;5030536;28;20824;-66
2021/06/25 11:24:09;;;;;;;18.23;15.70;;;19.00;99.90;;;;;;5032961;28;20455;-66
2021/06/25 11:26:52;;;;;;;20.00;17.17;;;19.20;99.90;;;;;;5046180;28;20441;-67
2021/06/25 11:29:20;;;;;;;21.53;17.43;;;19.20;99.90;;;;;;5027936;28;20477;-67
2021/06/25 11:31:47;;;;;;;19.23;17.00;;;19.20;99.90;;;;;;5025169;28;20539;-65
2021/06/25 11:34:30;;;;;;;20.63;18.20;;;19.30;99.90;;;;;;5030025;28;20484;-66
2021/06/25 11:36:58;;;;;;;17.53;15.50;;;19.60;99.90;;;;;;5039712;28;20445;-67
2021/06/25 11:39:35;;;;;;;17.70;16.00;;;19.60;99.90;;;;;;5034874;28;20448;-69
2021/06/25 11:42:06;;;;;;;17.50;15.70;;;19.60;99.90;;;;;;5049631;28;20511;-66
2021/06/25 11:44:37;;;;;;;16.77;15.00;;;19.70;99.90;;;;;;5049687;28;20509;-70
2021/06/25 11:47:10;;;;;;;18.43;16.23;;;19.70;99.90;;;;;;5049489;28;20428;-67
2021/06/25 11:49:42;;;;;;;18.07;15.70;;;20.10;99.90;;;;;;5049344;28;20432;-69
2021/06/25 11:52:12;;;;;;;18.27;16.40;;;20.20;99.90;;;;;;5050075;28;20468;-65
2021/06/25 11:54:39;;;;;;;16.30;13.87;;;20.40;99.90;;;;;;5049524;28;21096;-66
2021/06/25 11:57:16;;;;;;;14.07;12.57;;;20.60;99.90;;;;;;5048470;28;20454;-66
2021/06/25 12:00:12;;;;;;;10.83;9.83;;;20.80;99.90;;;;;;5049172;28;20451;-67
2021/06/25 12:02:44;;;;;;;9.80;8.77;;;20.90;99.90;;;;;;5039290;28;20449;-66
2021/06/25 12:05:12;;;;;;;10.20;9.20;;;20.70;99.90;;;;;;5030897;28;21004;-66
2021/06/25 12:07:39;;;;;;;10.43;9.30;;;21.10;99.90;;;;;;5030456;28;20512;-66
2021/06/25 12:10:07;;;;;;;9.47;8.47;;;21.40;99.90;;;;;;5035564;28;20814;-68
2021/06/25 12:12:35;;;;;;;9.60;8.70;;;21.20;99.90;;;;;;5043780;28;20536;-68
2021/06/25 12:15:08;;;;;;;9.10;8.20;;;20.80;99.90;;;;;;5031812;28;21001;-68
2021/06/25 12:17:45;;;;;;;9.40;8.50;;;20.50;99.90;;;;;;5036593;28;20501;-67
2021/06/25 12:20:16;;;;;;;9.40;8.50;;;20.60;99.90;;;;;;5036611;28;20467;-68
2021/06/25 12:23:05;;;;;;;10.97;9.83;;;20.90;99.90;;;;;;5031391;28;20445;-65
2021/06/25 12:25:38;;;;;;;11.40;10.20;;;21.10;99.90;;;;;;5027421;28;20973;-67
2021/06/25 12:28:13;;;;;;;11.90;10.80;;;21.30;99.90;;;;;;5030015;28;20468;-70
2021/06/25 12:30:44;;;;;;;13.10;11.83;;;21.20;99.90;;;;;;5029784;28;20539;-68
2021/06/25 12:33:12;;;;;;;13.30;12.00;;;21.40;99.90;;;;;;5029870;28;20441;-67
2021/06/25 12:35:41;;;;;;;12.03;10.73;;;21.70;99.90;;;;;;5033493;28;20454;-68
2021/06/25 12:38:10;;;;;;;14.57;13.00;;;21.80;99.90;;;;;;5050464;28;20510;-67
2021/06/25 12:40:50;;;;;;;12.77;11.40;;;21.40;99.90;;;;;;5049207;28;20527;-65
2021/06/25 12:43:22;;;;;;;12.00;10.80;;;21.00;99.90;;;;;;5039055;28;20896;-67
2021/06/25 12:45:52;;;;;;;11.27;10.27;;;20.60;99.90;;;;;;5044193;28;20436;-68
2021/06/25 12:48:23;;;;;;;13.23;11.87;;;20.50;99.90;;;;;;5041633;28;20529;-67
2021/06/25 12:50:54;;;;;;;10.87;9.97;;;20.50;99.90;;;;;;5040313;28;20526;-67
2021/06/25 12:53:27;;;;;;;10.20;9.30;;;20.50;99.90;;;;;;5035709;28;20446;-66
2021/06/25 12:55:54;;;;;;;9.53;8.53;;;20.50;99.90;;;;;;5037053;28;20536;-67
2021/06/25 12:58:22;;;;;;;9.00;8.07;;;20.60;99.90;;;;;;5035747;28;20575;-68
2021/06/25 13:00:57;;;;;;;11.97;8.67;;;21.20;99.90;;;;;;5037047;28;20463;-68